Eskdale, Utah
Current Conditions -  °F | °C
As of 2:52 PM on Thursday 23 Oct 2014 (Local Time) from KMLF Reporting Station
Clear Clear  
Wind Chill: 74°   Ceiling: Unl
Heat Index: 74°   Visibility: 10mi
Dew Point: 26°   Wind: 20mph
Humidity: 17%   Direction: 200°SSW
Pressure: 30.13"   Gusts: 24mph
Location:  39.0932°N, 113.543°W
Report Text: KMLF 232052Z AUTO 20017G21KT 10SM CLR 23/M03 A3013 RMK AO2 SLP164 T02331033 57020 TSNO
Loading
Personal Weather Stations






























Interactive Weather Map
Tropical Storm Tracking
New forecast layout! Learn more

10-Day Weather Forecast

Advertisements
Track Severe Weather on mobile